sensor_id;sensor_type;location;lat;lon;timestamp;P1;durP1;ratioP1;P2;durP2;ratioP2
70455;SDS011;57916;51.996;5.180;2023-07-08T00:01:17;3.95;;;3.15;;
70455;SDS011;57916;51.996;5.180;2023-07-08T00:03:46;3.08;;;2.70;;
70455;SDS011;57916;51.996;5.180;2023-07-08T00:06:17;5.10;;;2.80;;
70455;SDS011;57916;51.996;5.180;2023-07-08T00:08:49;4.38;;;2.80;;
70455;SDS011;57916;51.996;5.180;2023-07-08T00:11:16;4.53;;;3.08;;
70455;SDS011;57916;51.996;5.180;2023-07-08T00:13:44;4.63;;;2.60;;
70455;SDS011;57916;51.996;5.180;2023-07-08T00:16:12;3.33;;;2.75;;
70455;SDS011;57916;51.996;5.180;2023-07-08T00:18:40;6.05;;;2.80;;
70455;SDS011;57916;51.996;5.180;2023-07-08T00:21:11;2.90;;;2.55;;
70455;SDS011;57916;51.996;5.180;2023-07-08T00:23:45;5.38;;;2.70;;
70455;SDS011;57916;51.996;5.180;2023-07-08T00:26:26;5.20;;;2.92;;
70455;SDS011;57916;51.996;5.180;2023-07-08T00:28:57;3.58;;;2.78;;
70455;SDS011;57916;51.996;5.180;2023-07-08T00:31:24;3.67;;;2.83;;
70455;SDS011;57916;51.996;5.180;2023-07-08T00:33:53;4.85;;;2.70;;
70455;SDS011;57916;51.996;5.180;2023-07-08T00:36:23;3.10;;;2.80;;
70455;SDS011;57916;51.996;5.180;2023-07-08T00:38:52;3.47;;;2.72;;
70455;SDS011;57916;51.996;5.180;2023-07-08T00:41:33;6.07;;;2.77;;
70455;SDS011;57916;51.996;5.180;2023-07-08T00:44:03;2.95;;;2.70;;
70455;SDS011;57916;51.996;5.180;2023-07-08T00:46:32;3.70;;;2.60;;
70455;SDS011;57916;51.996;5.180;2023-07-08T00:49:48;3.83;;;2.72;;
70455;SDS011;57916;51.996;5.180;2023-07-08T00:54:53;4.18;;;2.72;;
70455;SDS011;57916;51.996;5.180;2023-07-08T00:57:22;3.75;;;2.50;;
70455;SDS011;57916;51.996;5.180;2023-07-08T01:00:00;2.90;;;2.65;;
70455;SDS011;57916;51.996;5.180;2023-07-08T01:02:31;5.03;;;2.67;;
70455;SDS011;57916;51.996;5.180;2023-07-08T01:08:02;4.32;;;2.80;;
70455;SDS011;57916;51.996;5.180;2023-07-08T01:10:50;4.18;;;2.63;;
70455;SDS011;57916;51.996;5.180;2023-07-08T01:13:25;4.57;;;2.83;;
70455;SDS011;57916;51.996;5.180;2023-07-08T01:15:53;6.60;;;2.75;;
70455;SDS011;57916;51.996;5.180;2023-07-08T01:18:21;3.78;;;2.60;;
70455;SDS011;57916;51.996;5.180;2023-07-08T01:20:48;3.67;;;2.60;;
70455;SDS011;57916;51.996;5.180;2023-07-08T01:23:15;2.70;;;2.50;;
70455;SDS011;57916;51.996;5.180;2023-07-08T01:25:44;3.13;;;2.70;;
70455;SDS011;57916;51.996;5.180;2023-07-08T01:28:11;3.63;;;2.45;;
70455;SDS011;57916;51.996;5.180;2023-07-08T01:30:43;3.17;;;2.58;;
70455;SDS011;57916;51.996;5.180;2023-07-08T01:33:14;4.70;;;2.60;;
70455;SDS011;57916;51.996;5.180;2023-07-08T01:35:45;3.47;;;2.53;;
70455;SDS011;57916;51.996;5.180;2023-07-08T01:38:13;3.85;;;2.90;;
70455;SDS011;57916;51.996;5.180;2023-07-08T01:40:53;4.25;;;2.53;;
70455;SDS011;57916;51.996;5.180;2023-07-08T01:43:23;4.63;;;2.90;;
70455;SDS011;57916;51.996;5.180;2023-07-08T01:45:50;2.90;;;2.70;;
70455;SDS011;57916;51.996;5.180;2023-07-08T01:48:20;4.95;;;2.60;;
70455;SDS011;57916;51.996;5.180;2023-07-08T01:50:56;4.57;;;2.80;;
70455;SDS011;57916;51.996;5.180;2023-07-08T01:53:33;4.32;;;2.70;;
70455;SDS011;57916;51.996;5.180;2023-07-08T01:56:04;3.50;;;2.83;;
70455;SDS011;57916;51.996;5.180;2023-07-08T01:58:31;7.22;;;2.90;;
70455;SDS011;57916;51.996;5.180;2023-07-08T02:00:59;3.13;;;2.90;;
70455;SDS011;57916;51.996;5.180;2023-07-08T02:03:27;3.45;;;2.88;;
70455;SDS011;57916;51.996;5.180;2023-07-08T02:05:55;3.70;;;2.97;;
70455;SDS011;57916;51.996;5.180;2023-07-08T02:08:22;3.78;;;2.72;;
70455;SDS011;57916;51.996;5.180;2023-07-08T02:10:51;4.07;;;3.03;;
70455;SDS011;57916;51.996;5.180;2023-07-08T02:13:20;4.88;;;2.90;;
70455;SDS011;57916;51.996;5.180;2023-07-08T02:15:49;3.10;;;2.78;;
70455;SDS011;57916;51.996;5.180;2023-07-08T02:18:16;3.63;;;2.67;;
70455;SDS011;57916;51.996;5.180;2023-07-08T02:20:45;3.17;;;2.75;;
70455;SDS011;57916;51.996;5.180;2023-07-08T02:23:13;3.92;;;2.90;;
70455;SDS011;57916;51.996;5.180;2023-07-08T02:25:41;5.68;;;2.92;;
70455;SDS011;57916;51.996;5.180;2023-07-08T02:28:10;3.30;;;2.90;;
70455;SDS011;57916;51.996;5.180;2023-07-08T02:30:37;4.80;;;2.80;;
70455;SDS011;57916;51.996;5.180;2023-07-08T02:33:07;5.45;;;3.05;;
70455;SDS011;57916;51.996;5.180;2023-07-08T02:35:36;3.88;;;3.08;;
70455;SDS011;57916;51.996;5.180;2023-07-08T02:38:04;2.83;;;2.63;;
70455;SDS011;57916;51.996;5.180;2023-07-08T02:40:31;7.45;;;2.92;;
70455;SDS011;57916;51.996;5.180;2023-07-08T02:42:58;4.38;;;2.95;;
70455;SDS011;57916;51.996;5.180;2023-07-08T02:45:25;4.85;;;2.92;;
70455;SDS011;57916;51.996;5.180;2023-07-08T02:47:52;3.20;;;2.90;;
70455;SDS011;57916;51.996;5.180;2023-07-08T02:50:19;3.22;;;2.80;;
70455;SDS011;57916;51.996;5.180;2023-07-08T02:52:46;3.13;;;2.80;;
70455;SDS011;57916;51.996;5.180;2023-07-08T02:55:13;6.40;;;3.10;;
70455;SDS011;57916;51.996;5.180;2023-07-08T02:57:40;4.93;;;2.75;;
70455;SDS011;57916;51.996;5.180;2023-07-08T03:00:07;3.40;;;3.10;;
70455;SDS011;57916;51.996;5.180;2023-07-08T03:02:34;3.10;;;2.90;;
70455;SDS011;57916;51.996;5.180;2023-07-08T03:05:01;6.72;;;3.10;;
70455;SDS011;57916;51.996;5.180;2023-07-08T03:07:31;4.47;;;2.90;;
70455;SDS011;57916;51.996;5.180;2023-07-08T03:09:58;4.65;;;2.85;;
70455;SDS011;57916;51.996;5.180;2023-07-08T03:12:25;3.80;;;2.92;;
70455;SDS011;57916;51.996;5.180;2023-07-08T03:14:52;3.10;;;2.90;;
70455;SDS011;57916;51.996;5.180;2023-07-08T03:17:19;5.95;;;2.75;;
70455;SDS011;57916;51.996;5.180;2023-07-08T03:19:46;3.10;;;2.80;;
70455;SDS011;57916;51.996;5.180;2023-07-08T03:22:14;3.10;;;2.80;;
70455;SDS011;57916;51.996;5.180;2023-07-08T03:24:41;5.32;;;2.85;;
70455;SDS011;57916;51.996;5.180;2023-07-08T03:27:16;7.53;;;2.90;;
70455;SDS011;57916;51.996;5.180;2023-07-08T03:29:45;3.83;;;2.67;;
70455;SDS011;57916;51.996;5.180;2023-07-08T03:32:12;3.35;;;2.80;;
70455;SDS011;57916;51.996;5.180;2023-07-08T03:34:40;3.72;;;2.53;;
70455;SDS011;57916;51.996;5.180;2023-07-08T03:37:08;5.30;;;2.75;;
70455;SDS011;57916;51.996;5.180;2023-07-08T03:39:35;5.75;;;2.88;;
70455;SDS011;57916;51.996;5.180;2023-07-08T03:42:03;6.75;;;2.90;;
70455;SDS011;57916;51.996;5.180;2023-07-08T03:44:30;6.18;;;2.70;;
70455;SDS011;57916;51.996;5.180;2023-07-08T03:46:58;2.95;;;2.75;;
70455;SDS011;57916;51.996;5.180;2023-07-08T03:49:25;3.50;;;2.70;;
70455;SDS011;57916;51.996;5.180;2023-07-08T03:51:54;3.38;;;2.95;;
70455;SDS011;57916;51.996;5.180;2023-07-08T03:54:22;6.40;;;2.78;;
70455;SDS011;57916;51.996;5.180;2023-07-08T03:56:52;5.38;;;2.70;;
70455;SDS011;57916;51.996;5.180;2023-07-08T03:59:21;4.90;;;2.90;;
70455;SDS011;57916;51.996;5.180;2023-07-08T04:01:49;3.35;;;2.60;;
70455;SDS011;57916;51.996;5.180;2023-07-08T04:04:16;5.10;;;2.90;;
70455;SDS011;57916;51.996;5.180;2023-07-08T04:06:43;5.47;;;2.50;;
70455;SDS011;57916;51.996;5.180;2023-07-08T04:09:12;5.68;;;2.65;;
70455;SDS011;57916;51.996;5.180;2023-07-08T04:11:39;3.92;;;2.75;;
70455;SDS011;57916;51.996;5.180;2023-07-08T04:14:07;7.28;;;2.92;;
70455;SDS011;57916;51.996;5.180;2023-07-08T04:16:43;7.57;;;3.03;;
70455;SDS011;57916;51.996;5.180;2023-07-08T04:19:13;6.55;;;3.00;;
70455;SDS011;57916;51.996;5.180;2023-07-08T04:21:42;5.10;;;3.08;;
70455;SDS011;57916;51.996;5.180;2023-07-08T04:24:11;3.20;;;2.90;;
70455;SDS011;57916;51.996;5.180;2023-07-08T04:26:39;3.15;;;2.85;;
70455;SDS011;57916;51.996;5.180;2023-07-08T04:29:13;3.22;;;2.90;;
70455;SDS011;57916;51.996;5.180;2023-07-08T04:31:42;3.50;;;2.80;;
70455;SDS011;57916;51.996;5.180;2023-07-08T04:34:10;5.33;;;3.10;;
70455;SDS011;57916;51.996;5.180;2023-07-08T04:36:37;8.60;;;2.90;;
70455;SDS011;57916;51.996;5.180;2023-07-08T04:39:05;2.90;;;2.70;;
70455;SDS011;57916;51.996;5.180;2023-07-08T04:41:33;3.08;;;2.70;;
70455;SDS011;57916;51.996;5.180;2023-07-08T04:44:07;3.22;;;2.80;;
70455;SDS011;57916;51.996;5.180;2023-07-08T04:46:42;4.40;;;2.80;;
70455;SDS011;57916;51.996;5.180;2023-07-08T04:49:14;3.33;;;2.63;;
70455;SDS011;57916;51.996;5.180;2023-07-08T04:51:41;5.20;;;3.08;;
70455;SDS011;57916;51.996;5.180;2023-07-08T04:54:08;6.13;;;2.90;;
70455;SDS011;57916;51.996;5.180;2023-07-08T04:56:39;5.45;;;2.85;;
70455;SDS011;57916;51.996;5.180;2023-07-08T04:59:08;3.83;;;2.80;;
70455;SDS011;57916;51.996;5.180;2023-07-08T05:01:36;2.75;;;2.55;;
70455;SDS011;57916;51.996;5.180;2023-07-08T05:04:04;7.50;;;2.90;;
70455;SDS011;57916;51.996;5.180;2023-07-08T05:06:32;3.10;;;2.80;;
70455;SDS011;57916;51.996;5.180;2023-07-08T05:09:00;4.45;;;2.97;;
70455;SDS011;57916;51.996;5.180;2023-07-08T05:11:29;4.00;;;2.90;;
70455;SDS011;57916;51.996;5.180;2023-07-08T05:13:56;4.10;;;2.70;;
70455;SDS011;57916;51.996;5.180;2023-07-08T05:16:23;4.40;;;2.50;;
70455;SDS011;57916;51.996;5.180;2023-07-08T05:18:50;4.72;;;3.08;;
70455;SDS011;57916;51.996;5.180;2023-07-08T05:21:18;4.43;;;2.60;;
70455;SDS011;57916;51.996;5.180;2023-07-08T05:23:46;4.88;;;2.65;;
70455;SDS011;57916;51.996;5.180;2023-07-08T05:26:15;3.03;;;2.80;;
70455;SDS011;57916;51.996;5.180;2023-07-08T05:28:43;3.05;;;2.70;;
70455;SDS011;57916;51.996;5.180;2023-07-08T05:31:10;3.13;;;2.70;;
70455;SDS011;57916;51.996;5.180;2023-07-08T05:33:37;3.75;;;2.83;;
70455;SDS011;57916;51.996;5.180;2023-07-08T05:36:04;4.00;;;2.58;;
70455;SDS011;57916;51.996;5.180;2023-07-08T05:38:31;4.90;;;2.88;;
70455;SDS011;57916;51.996;5.180;2023-07-08T05:40:58;4.30;;;2.73;;
70455;SDS011;57916;51.996;5.180;2023-07-08T05:43:26;4.78;;;2.67;;
70455;SDS011;57916;51.996;5.180;2023-07-08T05:45:57;2.80;;;2.60;;
70455;SDS011;57916;51.996;5.180;2023-07-08T05:48:38;3.60;;;2.50;;
70455;SDS011;57916;51.996;5.180;2023-07-08T05:51:05;3.60;;;2.40;;
70455;SDS011;57916;51.996;5.180;2023-07-08T05:53:32;4.85;;;2.53;;
70455;SDS011;57916;51.996;5.180;2023-07-08T05:55:59;3.30;;;2.53;;
70455;SDS011;57916;51.996;5.180;2023-07-08T05:58:26;7.03;;;2.47;;
70455;SDS011;57916;51.996;5.180;2023-07-08T06:00:57;4.18;;;2.45;;
70455;SDS011;57916;51.996;5.180;2023-07-08T06:03:25;6.50;;;2.50;;
70455;SDS011;57916;51.996;5.180;2023-07-08T06:05:52;2.80;;;2.60;;
70455;SDS011;57916;51.996;5.180;2023-07-08T06:08:19;4.47;;;2.30;;
70455;SDS011;57916;51.996;5.180;2023-07-08T06:10:46;7.03;;;2.67;;
70455;SDS011;57916;51.996;5.180;2023-07-08T06:13:14;2.83;;;2.30;;
70455;SDS011;57916;51.996;5.180;2023-07-08T06:15:41;2.75;;;2.50;;
70455;SDS011;57916;51.996;5.180;2023-07-08T06:18:08;2.95;;;2.20;;
70455;SDS011;57916;51.996;5.180;2023-07-08T06:20:35;3.40;;;2.25;;
70455;SDS011;57916;51.996;5.180;2023-07-08T06:23:02;7.22;;;2.63;;
70455;SDS011;57916;51.996;5.180;2023-07-08T06:25:30;4.03;;;2.30;;
70455;SDS011;57916;51.996;5.180;2023-07-08T06:27:57;3.08;;;2.70;;
70455;SDS011;57916;51.996;5.180;2023-07-08T06:30:24;4.10;;;2.50;;
70455;SDS011;57916;51.996;5.180;2023-07-08T06:32:51;5.90;;;2.50;;
70455;SDS011;57916;51.996;5.180;2023-07-08T06:35:18;3.17;;;2.22;;
70455;SDS011;57916;51.996;5.180;2023-07-08T06:37:45;3.53;;;2.30;;
70455;SDS011;57916;51.996;5.180;2023-07-08T06:40:12;3.05;;;2.30;;
70455;SDS011;57916;51.996;5.180;2023-07-08T06:42:39;5.00;;;2.30;;
70455;SDS011;57916;51.996;5.180;2023-07-08T06:45:17;6.18;;;2.22;;
70455;SDS011;57916;51.996;5.180;2023-07-08T06:47:44;3.70;;;2.10;;
70455;SDS011;57916;51.996;5.180;2023-07-08T06:50:12;5.50;;;2.35;;
70455;SDS011;57916;51.996;5.180;2023-07-08T06:52:39;2.55;;;2.30;;
70455;SDS011;57916;51.996;5.180;2023-07-08T06:55:08;5.07;;;2.33;;
70455;SDS011;57916;51.996;5.180;2023-07-08T06:57:37;3.05;;;2.20;;
70455;SDS011;57916;51.996;5.180;2023-07-08T07:00:07;5.60;;;2.40;;
70455;SDS011;57916;51.996;5.180;2023-07-08T07:02:36;3.38;;;2.30;;
70455;SDS011;57916;51.996;5.180;2023-07-08T07:05:04;3.07;;;2.27;;
70455;SDS011;57916;51.996;5.180;2023-07-08T07:07:31;5.47;;;2.20;;
70455;SDS011;57916;51.996;5.180;2023-07-08T07:09:58;3.63;;;2.40;;
70455;SDS011;57916;51.996;5.180;2023-07-08T07:12:25;2.70;;;2.50;;
70455;SDS011;57916;51.996;5.180;2023-07-08T07:14:53;3.42;;;2.30;;
70455;SDS011;57916;51.996;5.180;2023-07-08T07:17:21;3.53;;;2.28;;
70455;SDS011;57916;51.996;5.180;2023-07-08T07:19:49;2.73;;;2.43;;
70455;SDS011;57916;51.996;5.180;2023-07-08T07:22:16;6.43;;;2.50;;
70455;SDS011;57916;51.996;5.180;2023-07-08T07:24:43;3.38;;;2.40;;
70455;SDS011;57916;51.996;5.180;2023-07-08T07:27:10;4.00;;;2.37;;
70455;SDS011;57916;51.996;5.180;2023-07-08T07:29:38;3.20;;;2.40;;
70455;SDS011;57916;51.996;5.180;2023-07-08T07:32:15;2.92;;;2.63;;
70455;SDS011;57916;51.996;5.180;2023-07-08T07:34:47;3.25;;;2.50;;
70455;SDS011;57916;51.996;5.180;2023-07-08T07:37:15;3.88;;;2.60;;
70455;SDS011;57916;51.996;5.180;2023-07-08T07:39:43;3.00;;;2.13;;
70455;SDS011;57916;51.996;5.180;2023-07-08T07:42:10;2.35;;;2.15;;
70455;SDS011;57916;51.996;5.180;2023-07-08T07:44:42;3.78;;;2.92;;
70455;SDS011;57916;51.996;5.180;2023-07-08T07:47:10;6.15;;;2.67;;
70455;SDS011;57916;51.996;5.180;2023-07-08T07:49:37;2.42;;;2.22;;
70455;SDS011;57916;51.996;5.180;2023-07-08T07:52:05;4.65;;;2.45;;
70455;SDS011;57916;51.996;5.180;2023-07-08T07:54:32;6.53;;;2.55;;
70455;SDS011;57916;51.996;5.180;2023-07-08T07:56:59;2.78;;;2.50;;
70455;SDS011;57916;51.996;5.180;2023-07-08T07:59:26;3.40;;;2.55;;
70455;SDS011;57916;51.996;5.180;2023-07-08T08:01:53;3.05;;;2.50;;
70455;SDS011;57916;51.996;5.180;2023-07-08T08:04:20;2.58;;;2.20;;
70455;SDS011;57916;51.996;5.180;2023-07-08T08:06:47;5.97;;;2.50;;
70455;SDS011;57916;51.996;5.180;2023-07-08T08:09:14;4.40;;;2.47;;
70455;SDS011;57916;51.996;5.180;2023-07-08T08:11:41;6.30;;;2.60;;
70455;SDS011;57916;51.996;5.180;2023-07-08T08:14:08;3.80;;;2.50;;
70455;SDS011;57916;51.996;5.180;2023-07-08T08:16:35;5.22;;;2.70;;
70455;SDS011;57916;51.996;5.180;2023-07-08T08:19:02;5.07;;;2.80;;
70455;SDS011;57916;51.996;5.180;2023-07-08T08:21:33;4.30;;;2.95;;
70455;SDS011;57916;51.996;5.180;2023-07-08T08:24:00;3.63;;;2.47;;
70455;SDS011;57916;51.996;5.180;2023-07-08T08:26:28;6.00;;;2.90;;
70455;SDS011;57916;51.996;5.180;2023-07-08T08:28:55;7.03;;;2.80;;
70455;SDS011;57916;51.996;5.180;2023-07-08T08:31:22;3.70;;;2.67;;
70455;SDS011;57916;51.996;5.180;2023-07-08T08:33:51;5.82;;;3.05;;
70455;SDS011;57916;51.996;5.180;2023-07-08T08:36:18;5.68;;;3.10;;
70455;SDS011;57916;51.996;5.180;2023-07-08T08:38:47;9.15;;;3.20;;
70455;SDS011;57916;51.996;5.180;2023-07-08T08:41:15;6.50;;;2.80;;
70455;SDS011;57916;51.996;5.180;2023-07-08T08:43:44;6.75;;;3.33;;
70455;SDS011;57916;51.996;5.180;2023-07-08T08:51:28;10.43;;;3.30;;
70455;SDS011;57916;51.996;5.180;2023-07-08T08:53:58;4.50;;;3.17;;
70455;SDS011;57916;51.996;5.180;2023-07-08T08:56:27;7.10;;;3.53;;
70455;SDS011;57916;51.996;5.180;2023-07-08T09:01:51;6.35;;;3.25;;
70455;SDS011;57916;51.996;5.180;2023-07-08T09:04:20;4.10;;;3.07;;
70455;SDS011;57916;51.996;5.180;2023-07-08T09:06:51;7.65;;;3.15;;
70455;SDS011;57916;51.996;5.180;2023-07-08T09:09:35;8.10;;;3.15;;
70455;SDS011;57916;51.996;5.180;2023-07-08T09:12:12;7.88;;;2.83;;
70455;SDS011;57916;51.996;5.180;2023-07-08T09:14:44;7.47;;;3.20;;
70455;SDS011;57916;51.996;5.180;2023-07-08T09:17:20;7.72;;;3.50;;
70455;SDS011;57916;51.996;5.180;2023-07-08T09:19:58;5.15;;;3.63;;
70455;SDS011;57916;51.996;5.180;2023-07-08T09:23:02;7.13;;;3.40;;
70455;SDS011;57916;51.996;5.180;2023-07-08T09:25:56;8.00;;;3.60;;
70455;SDS011;57916;51.996;5.180;2023-07-08T09:28:41;4.73;;;3.20;;
70455;SDS011;57916;51.996;5.180;2023-07-08T09:31:28;6.77;;;3.33;;
70455;SDS011;57916;51.996;5.180;2023-07-08T09:34:14;3.40;;;3.10;;
70455;SDS011;57916;51.996;5.180;2023-07-08T09:36:44;7.07;;;3.17;;
70455;SDS011;57916;51.996;5.180;2023-07-08T09:39:14;6.90;;;3.70;;
70455;SDS011;57916;51.996;5.180;2023-07-08T09:41:44;8.95;;;3.72;;
70455;SDS011;57916;51.996;5.180;2023-07-08T09:44:15;10.32;;;3.72;;
70455;SDS011;57916;51.996;5.180;2023-07-08T09:46:44;6.43;;;4.07;;
70455;SDS011;57916;51.996;5.180;2023-07-08T09:49:22;8.17;;;3.67;;
70455;SDS011;57916;51.996;5.180;2023-07-08T09:51:54;6.63;;;3.53;;
70455;SDS011;57916;51.996;5.180;2023-07-08T09:54:21;7.40;;;4.00;;
70455;SDS011;57916;51.996;5.180;2023-07-08T09:59:51;6.77;;;3.40;;
70455;SDS011;57916;51.996;5.180;2023-07-08T10:02:27;8.23;;;4.10;;
70455;SDS011;57916;51.996;5.180;2023-07-08T10:07:46;8.00;;;4.43;;
70455;SDS011;57916;51.996;5.180;2023-07-08T10:10:16;5.90;;;4.25;;
70455;SDS011;57916;51.996;5.180;2023-07-08T10:12:53;8.50;;;4.75;;
70455;SDS011;57916;51.996;5.180;2023-07-08T10:15:28;7.55;;;5.18;;
70455;SDS011;57916;51.996;5.180;2023-07-08T10:17:59;6.57;;;4.00;;
70455;SDS011;57916;51.996;5.180;2023-07-08T10:20:29;7.88;;;4.68;;
70455;SDS011;57916;51.996;5.180;2023-07-08T10:26:42;7.55;;;4.25;;
70455;SDS011;57916;51.996;5.180;2023-07-08T10:44:56;8.23;;;4.32;;
70455;SDS011;57916;51.996;5.180;2023-07-08T10:47:56;8.15;;;3.95;;
70455;SDS011;57916;51.996;5.180;2023-07-08T10:56:20;7.77;;;4.07;;
70455;SDS011;57916;51.996;5.180;2023-07-08T11:04:37;9.03;;;4.23;;
70455;SDS011;57916;51.996;5.180;2023-07-08T11:07:42;5.10;;;3.90;;
70455;SDS011;57916;51.996;5.180;2023-07-08T11:10:19;5.20;;;3.65;;
70455;SDS011;57916;51.996;5.180;2023-07-08T11:13:02;6.35;;;4.10;;
70455;SDS011;57916;51.996;5.180;2023-07-08T11:15:52;8.88;;;4.13;;
70455;SDS011;57916;51.996;5.180;2023-07-08T11:21:16;6.75;;;4.07;;
70455;SDS011;57916;51.996;5.180;2023-07-08T11:23:51;6.25;;;3.60;;
70455;SDS011;57916;51.996;5.180;2023-07-08T11:26:53;8.07;;;3.97;;
70455;SDS011;57916;51.996;5.180;2023-07-08T11:29:26;7.85;;;3.70;;
70455;SDS011;57916;51.996;5.180;2023-07-08T11:31:56;7.78;;;3.90;;
70455;SDS011;57916;51.996;5.180;2023-07-08T11:34:24;5.65;;;4.05;;
70455;SDS011;57916;51.996;5.180;2023-07-08T11:36:53;8.25;;;3.80;;
70455;SDS011;57916;51.996;5.180;2023-07-08T11:42:03;7.25;;;4.05;;
70455;SDS011;57916;51.996;5.180;2023-07-08T11:44:41;7.43;;;3.60;;
70455;SDS011;57916;51.996;5.180;2023-07-08T11:47:18;7.38;;;3.83;;
70455;SDS011;57916;51.996;5.180;2023-07-08T11:49:48;7.47;;;3.72;;
70455;SDS011;57916;51.996;5.180;2023-07-08T11:52:18;9.18;;;4.30;;
70455;SDS011;57916;51.996;5.180;2023-07-08T11:54:48;4.68;;;3.80;;
70455;SDS011;57916;51.996;5.180;2023-07-08T11:57:25;7.00;;;4.20;;
70455;SDS011;57916;51.996;5.180;2023-07-08T12:02:47;7.13;;;3.90;;
70455;SDS011;57916;51.996;5.180;2023-07-08T12:05:16;8.93;;;4.15;;
70455;SDS011;57916;51.996;5.180;2023-07-08T12:07:55;7.33;;;4.37;;
70455;SDS011;57916;51.996;5.180;2023-07-08T12:10:49;5.90;;;4.30;;
70455;SDS011;57916;51.996;5.180;2023-07-08T12:13:23;5.78;;;4.30;;
70455;SDS011;57916;51.996;5.180;2023-07-08T12:15:52;8.18;;;4.70;;
70455;SDS011;57916;51.996;5.180;2023-07-08T12:18:21;7.07;;;4.47;;
70455;SDS011;57916;51.996;5.180;2023-07-08T12:20:56;9.25;;;4.88;;
70455;SDS011;57916;51.996;5.180;2023-07-08T12:23:25;7.65;;;4.78;;
70455;SDS011;57916;51.996;5.180;2023-07-08T12:25:54;9.48;;;5.20;;
70455;SDS011;57916;51.996;5.180;2023-07-08T12:28:22;8.65;;;4.65;;
70455;SDS011;57916;51.996;5.180;2023-07-08T12:30:50;6.18;;;4.75;;
70455;SDS011;57916;51.996;5.180;2023-07-08T12:33:19;7.90;;;4.82;;
70455;SDS011;57916;51.996;5.180;2023-07-08T12:35:54;8.00;;;4.70;;
70455;SDS011;57916;51.996;5.180;2023-07-08T12:38:32;8.88;;;4.75;;
70455;SDS011;57916;51.996;5.180;2023-07-08T12:44:04;10.70;;;4.90;;
70455;SDS011;57916;51.996;5.180;2023-07-08T12:46:41;7.63;;;4.63;;
70455;SDS011;57916;51.996;5.180;2023-07-08T12:49:08;8.38;;;4.85;;
70455;SDS011;57916;51.996;5.180;2023-07-08T12:51:35;9.97;;;4.60;;
70455;SDS011;57916;51.996;5.180;2023-07-08T12:54:02;9.60;;;4.53;;
70455;SDS011;57916;51.996;5.180;2023-07-08T12:56:29;7.93;;;4.60;;
70455;SDS011;57916;51.996;5.180;2023-07-08T12:58:57;9.07;;;4.65;;
70455;SDS011;57916;51.996;5.180;2023-07-08T13:01:26;7.93;;;4.47;;
70455;SDS011;57916;51.996;5.180;2023-07-08T13:03:59;10.87;;;4.60;;
70455;SDS011;57916;51.996;5.180;2023-07-08T13:06:29;7.65;;;4.45;;
70455;SDS011;57916;51.996;5.180;2023-07-08T13:12:10;8.88;;;5.00;;
70455;SDS011;57916;51.996;5.180;2023-07-08T13:14:42;6.13;;;4.57;;
70455;SDS011;57916;51.996;5.180;2023-07-08T13:17:14;7.10;;;4.63;;
70455;SDS011;57916;51.996;5.180;2023-07-08T13:19:42;7.32;;;4.70;;
70455;SDS011;57916;51.996;5.180;2023-07-08T13:22:20;7.23;;;4.50;;
70455;SDS011;57916;51.996;5.180;2023-07-08T13:24:48;6.82;;;4.30;;
70455;SDS011;57916;51.996;5.180;2023-07-08T13:27:25;7.35;;;4.30;;
70455;SDS011;57916;51.996;5.180;2023-07-08T13:29:54;6.43;;;4.70;;
70455;SDS011;57916;51.996;5.180;2023-07-08T13:32:41;7.28;;;4.55;;
70455;SDS011;57916;51.996;5.180;2023-07-08T13:35:24;6.65;;;4.70;;
70455;SDS011;57916;51.996;5.180;2023-07-08T13:38:03;7.97;;;4.50;;
70455;SDS011;57916;51.996;5.180;2023-07-08T13:40:30;8.60;;;4.65;;
70455;SDS011;57916;51.996;5.180;2023-07-08T13:42:58;6.75;;;4.25;;
70455;SDS011;57916;51.996;5.180;2023-07-08T13:45:27;5.88;;;4.15;;
70455;SDS011;57916;51.996;5.180;2023-07-08T13:50:40;9.32;;;4.32;;
70455;SDS011;57916;51.996;5.180;2023-07-08T13:53:16;6.95;;;4.50;;
70455;SDS011;57916;51.996;5.180;2023-07-08T13:55:45;6.45;;;4.28;;
70455;SDS011;57916;51.996;5.180;2023-07-08T13:58:16;6.03;;;4.45;;
70455;SDS011;57916;51.996;5.180;2023-07-08T14:00:44;10.55;;;4.32;;
70455;SDS011;57916;51.996;5.180;2023-07-08T14:03:11;5.90;;;4.27;;
70455;SDS011;57916;51.996;5.180;2023-07-08T14:05:43;9.40;;;4.88;;
70455;SDS011;57916;51.996;5.180;2023-07-08T14:08:12;12.85;;;4.57;;
70455;SDS011;57916;51.996;5.180;2023-07-08T14:10:41;9.75;;;4.25;;
70455;SDS011;57916;51.996;5.180;2023-07-08T14:13:09;5.60;;;4.25;;
70455;SDS011;57916;51.996;5.180;2023-07-08T14:15:37;8.32;;;4.35;;
70455;SDS011;57916;51.996;5.180;2023-07-08T14:18:05;7.55;;;4.55;;
70455;SDS011;57916;51.996;5.180;2023-07-08T14:20:34;6.40;;;3.77;;
70455;SDS011;57916;51.996;5.180;2023-07-08T14:23:01;6.18;;;4.28;;
70455;SDS011;57916;51.996;5.180;2023-07-08T14:25:28;9.93;;;4.38;;
70455;SDS011;57916;51.996;5.180;2023-07-08T14:27:55;7.97;;;4.10;;
70455;SDS011;57916;51.996;5.180;2023-07-08T14:30:23;7.00;;;4.00;;
70455;SDS011;57916;51.996;5.180;2023-07-08T14:32:50;6.60;;;4.47;;
70455;SDS011;57916;51.996;5.180;2023-07-08T14:35:19;4.70;;;4.20;;
70455;SDS011;57916;51.996;5.180;2023-07-08T14:37:54;9.27;;;4.60;;
70455;SDS011;57916;51.996;5.180;2023-07-08T14:40:26;7.63;;;3.95;;
70455;SDS011;57916;51.996;5.180;2023-07-08T14:43:03;5.40;;;4.10;;
70455;SDS011;57916;51.996;5.180;2023-07-08T14:45:40;8.55;;;4.40;;
70455;SDS011;57916;51.996;5.180;2023-07-08T14:48:13;8.48;;;4.30;;
70455;SDS011;57916;51.996;5.180;2023-07-08T14:50:40;6.75;;;4.35;;
70455;SDS011;57916;51.996;5.180;2023-07-08T14:53:07;6.13;;;3.90;;
70455;SDS011;57916;51.996;5.180;2023-07-08T14:55:35;6.07;;;3.90;;
70455;SDS011;57916;51.996;5.180;2023-07-08T14:58:03;5.43;;;4.22;;
70455;SDS011;57916;51.996;5.180;2023-07-08T15:00:30;9.65;;;4.70;;
70455;SDS011;57916;51.996;5.180;2023-07-08T15:02:57;8.23;;;5.35;;
70455;SDS011;57916;51.996;5.180;2023-07-08T15:05:25;7.13;;;4.40;;
70455;SDS011;57916;51.996;5.180;2023-07-08T15:07:55;6.85;;;4.43;;
70455;SDS011;57916;51.996;5.180;2023-07-08T15:10:24;6.50;;;4.70;;
70455;SDS011;57916;51.996;5.180;2023-07-08T15:12:54;8.02;;;4.70;;
70455;SDS011;57916;51.996;5.180;2023-07-08T15:15:26;10.73;;;4.40;;
70455;SDS011;57916;51.996;5.180;2023-07-08T15:17:54;5.05;;;4.28;;
70455;SDS011;57916;51.996;5.180;2023-07-08T15:20:21;7.25;;;4.57;;
70455;SDS011;57916;51.996;5.180;2023-07-08T15:22:48;8.70;;;3.95;;
70455;SDS011;57916;51.996;5.180;2023-07-08T15:25:16;8.40;;;4.30;;
70455;SDS011;57916;51.996;5.180;2023-07-08T15:27:44;9.20;;;4.30;;
70455;SDS011;57916;51.996;5.180;2023-07-08T15:30:19;6.85;;;4.45;;
70455;SDS011;57916;51.996;5.180;2023-07-08T15:32:50;8.45;;;4.07;;
70455;SDS011;57916;51.996;5.180;2023-07-08T15:35:22;9.40;;;4.50;;
70455;SDS011;57916;51.996;5.180;2023-07-08T15:37:51;7.90;;;4.10;;
70455;SDS011;57916;51.996;5.180;2023-07-08T15:40:19;8.70;;;4.40;;
70455;SDS011;57916;51.996;5.180;2023-07-08T15:42:49;7.10;;;4.32;;
70455;SDS011;57916;51.996;5.180;2023-07-08T15:45:22;6.97;;;4.30;;
70455;SDS011;57916;51.996;5.180;2023-07-08T15:47:51;5.83;;;3.93;;
70455;SDS011;57916;51.996;5.180;2023-07-08T15:50:21;10.18;;;4.25;;
70455;SDS011;57916;51.996;5.180;2023-07-08T15:52:51;7.07;;;3.72;;
70455;SDS011;57916;51.996;5.180;2023-07-08T15:55:29;8.43;;;4.03;;
70455;SDS011;57916;51.996;5.180;2023-07-08T15:58:19;8.32;;;4.22;;
70455;SDS011;57916;51.996;5.180;2023-07-08T16:00:55;6.05;;;4.28;;
70455;SDS011;57916;51.996;5.180;2023-07-08T16:03:23;6.75;;;4.00;;
70455;SDS011;57916;51.996;5.180;2023-07-08T16:05:55;5.57;;;4.18;;
70455;SDS011;57916;51.996;5.180;2023-07-08T16:08:23;6.70;;;4.05;;
70455;SDS011;57916;51.996;5.180;2023-07-08T16:10:58;6.78;;;4.07;;
70455;SDS011;57916;51.996;5.180;2023-07-08T16:13:31;10.45;;;4.10;;
70455;SDS011;57916;51.996;5.180;2023-07-08T16:16:01;8.30;;;4.10;;